<?xml version="1.0" encoding="UTF-8" standalone="no" ?>
<gpx xmlns="http://www.topografix.com/GPX/1/1" xmlns:xsi="http://www.w3.org/2001/XMLSchema-instance" xsi:schemaLocation="http://www.topografix.com/GPX/1/1 http://www.topografix.com/GPX/1/1/gpx.xsd" version="1.1" creator="VisuGPX - https://www.visugpx.com">
  <metadata>
    <name>Ballade a Saint Off</name>
    <desc><![CDATA[Petite ballade familiale sur St Off faite avec un enfant de 6 ans.]]></desc>
  </metadata>
  <trk>
    <name><![CDATA[ballade avec  Arn0]]></name>
    <trkseg>
      <trkpt lat="45.73472" lon="6.00129">
        <ele>617</ele>
        <time>2010-05-16T09:29:57Z</time>
      </trkpt>
      <trkpt lat="45.7347" lon="6.00106">
        <ele>596</ele>
        <time>2010-05-16T09:31:12Z</time>
      </trkpt>
      <trkpt lat="45.73475" lon="6.00072">
        <ele>594</ele>
        <time>2010-05-16T09:31:23Z</time>
      </trkpt>
      <trkpt lat="45.73504" lon="6.00082">
        <ele>593</ele>
        <time>2010-05-16T09:31:33Z</time>
      </trkpt>
      <trkpt lat="45.73536" lon="6.001">
        <ele>593</ele>
        <time>2010-05-16T09:31:43Z</time>
      </trkpt>
      <trkpt lat="45.73554" lon="6.00108">
        <ele>593</ele>
        <time>2010-05-16T09:31:53Z</time>
      </trkpt>
      <trkpt lat="45.73566" lon="6.00097">
        <ele>593</ele>
        <time>2010-05-16T09:32:03Z</time>
      </trkpt>
      <trkpt lat="45.73578" lon="6.00076">
        <ele>593</ele>
        <time>2010-05-16T09:32:14Z</time>
      </trkpt>
      <trkpt lat="45.73595" lon="6.00048">
        <ele>592</ele>
        <time>2010-05-16T09:32:24Z</time>
      </trkpt>
      <trkpt lat="45.73609" lon="6.00024">
        <ele>592</ele>
        <time>2010-05-16T09:32:34Z</time>
      </trkpt>
      <trkpt lat="45.73626" lon="5.99996">
        <ele>592</ele>
        <time>2010-05-16T09:32:44Z</time>
      </trkpt>
      <trkpt lat="45.73645" lon="5.99972">
        <ele>592</ele>
        <time>2010-05-16T09:32:54Z</time>
      </trkpt>
      <trkpt lat="45.7366" lon="5.99953">
        <ele>592</ele>
        <time>2010-05-16T09:33:04Z</time>
      </trkpt>
      <trkpt lat="45.73674" lon="5.99921">
        <ele>592</ele>
        <time>2010-05-16T09:33:14Z</time>
      </trkpt>
      <trkpt lat="45.73688" lon="5.99893">
        <ele>592</ele>
        <time>2010-05-16T09:33:24Z</time>
      </trkpt>
      <trkpt lat="45.73697" lon="5.9987">
        <ele>592</ele>
        <time>2010-05-16T09:33:34Z</time>
      </trkpt>
      <trkpt lat="45.73703" lon="5.99851">
        <ele>592</ele>
        <time>2010-05-16T09:33:44Z</time>
      </trkpt>
      <trkpt lat="45.73717" lon="5.99849">
        <ele>592</ele>
        <time>2010-05-16T09:33:54Z</time>
      </trkpt>
      <trkpt lat="45.73733" lon="5.9986">
        <ele>592</ele>
        <time>2010-05-16T09:34:04Z</time>
      </trkpt>
      <trkpt lat="45.73755" lon="5.99868">
        <ele>592</ele>
        <time>2010-05-16T09:34:14Z</time>
      </trkpt>
      <trkpt lat="45.73783" lon="5.99884">
        <ele>592</ele>
        <time>2010-05-16T09:34:24Z</time>
      </trkpt>
      <trkpt lat="45.73801" lon="5.99896">
        <ele>592</ele>
        <time>2010-05-16T09:34:34Z</time>
      </trkpt>
      <trkpt lat="45.73822" lon="5.99897">
        <ele>592</ele>
        <time>2010-05-16T09:34:47Z</time>
      </trkpt>
      <trkpt lat="45.73845" lon="5.99908">
        <ele>592</ele>
        <time>2010-05-16T09:34:58Z</time>
      </trkpt>
      <trkpt lat="45.73885" lon="5.9993">
        <ele>589</ele>
        <time>2010-05-16T09:35:09Z</time>
      </trkpt>
      <trkpt lat="45.73925" lon="5.99942">
        <ele>588</ele>
        <time>2010-05-16T09:35:19Z</time>
      </trkpt>
      <trkpt lat="45.73953" lon="5.99942">
        <ele>587</ele>
        <time>2010-05-16T09:35:29Z</time>
      </trkpt>
      <trkpt lat="45.73975" lon="5.99948">
        <ele>586</ele>
        <time>2010-05-16T09:35:39Z</time>
      </trkpt>
      <trkpt lat="45.74001" lon="5.99972">
        <ele>586</ele>
        <time>2010-05-16T09:35:49Z</time>
      </trkpt>
      <trkpt lat="45.74024" lon="5.99994">
        <ele>586</ele>
        <time>2010-05-16T09:35:59Z</time>
      </trkpt>
      <trkpt lat="45.74042" lon="6.00009">
        <ele>586</ele>
        <time>2010-05-16T09:36:09Z</time>
      </trkpt>
      <trkpt lat="45.74057" lon="6.00025">
        <ele>586</ele>
        <time>2010-05-16T09:36:19Z</time>
      </trkpt>
      <trkpt lat="45.74071" lon="6.00041">
        <ele>586</ele>
        <time>2010-05-16T09:36:29Z</time>
      </trkpt>
      <trkpt lat="45.74087" lon="6.0006">
        <ele>586</ele>
        <time>2010-05-16T09:36:39Z</time>
      </trkpt>
      <trkpt lat="45.74102" lon="6.00075">
        <ele>586</ele>
        <time>2010-05-16T09:36:49Z</time>
      </trkpt>
      <trkpt lat="45.74121" lon="6.00095">
        <ele>586</ele>
        <time>2010-05-16T09:36:59Z</time>
      </trkpt>
      <trkpt lat="45.74139" lon="6.00113">
        <ele>586</ele>
        <time>2010-05-16T09:37:09Z</time>
      </trkpt>
      <trkpt lat="45.74154" lon="6.00138">
        <ele>586</ele>
        <time>2010-05-16T09:37:19Z</time>
      </trkpt>
      <trkpt lat="45.74167" lon="6.00176">
        <ele>586</ele>
        <time>2010-05-16T09:37:29Z</time>
      </trkpt>
      <trkpt lat="45.74181" lon="6.00244">
        <ele>585</ele>
        <time>2010-05-16T09:37:39Z</time>
      </trkpt>
      <trkpt lat="45.7419" lon="6.00296">
        <ele>585</ele>
        <time>2010-05-16T09:37:49Z</time>
      </trkpt>
      <trkpt lat="45.74205" lon="6.00324">
        <ele>585</ele>
        <time>2010-05-16T09:37:59Z</time>
      </trkpt>
      <trkpt lat="45.74227" lon="6.00338">
        <ele>585</ele>
        <time>2010-05-16T09:38:09Z</time>
      </trkpt>
      <trkpt lat="45.74253" lon="6.00365">
        <ele>585</ele>
        <time>2010-05-16T09:38:19Z</time>
      </trkpt>
      <trkpt lat="45.74276" lon="6.004">
        <ele>585</ele>
        <time>2010-05-16T09:38:29Z</time>
      </trkpt>
      <trkpt lat="45.74295" lon="6.00441">
        <ele>585</ele>
        <time>2010-05-16T09:38:39Z</time>
      </trkpt>
      <trkpt lat="45.74324" lon="6.00491">
        <ele>583</ele>
        <time>2010-05-16T09:38:49Z</time>
      </trkpt>
      <trkpt lat="45.74362" lon="6.00572">
        <ele>578</ele>
        <time>2010-05-16T09:38:59Z</time>
      </trkpt>
      <trkpt lat="45.74414" lon="6.00624">
        <ele>577</ele>
        <time>2010-05-16T09:39:09Z</time>
      </trkpt>
      <trkpt lat="45.74461" lon="6.00675">
        <ele>576</ele>
        <time>2010-05-16T09:39:19Z</time>
      </trkpt>
      <trkpt lat="45.74475" lon="6.00736">
        <ele>576</ele>
        <time>2010-05-16T09:39:29Z</time>
      </trkpt>
      <trkpt lat="45.74495" lon="6.00775">
        <ele>576</ele>
        <time>2010-05-16T09:39:39Z</time>
      </trkpt>
      <trkpt lat="45.74519" lon="6.00785">
        <ele>576</ele>
        <time>2010-05-16T09:39:49Z</time>
      </trkpt>
      <trkpt lat="45.74541" lon="6.00811">
        <ele>576</ele>
        <time>2010-05-16T09:39:59Z</time>
      </trkpt>
      <trkpt lat="45.74556" lon="6.0083">
        <ele>576</ele>
        <time>2010-05-16T09:40:09Z</time>
      </trkpt>
      <trkpt lat="45.7458" lon="6.00833">
        <ele>576</ele>
        <time>2010-05-16T09:40:19Z</time>
      </trkpt>
      <trkpt lat="45.746" lon="6.00845">
        <ele>576</ele>
        <time>2010-05-16T09:40:29Z</time>
      </trkpt>
      <trkpt lat="45.74602" lon="6.00872">
        <ele>578</ele>
        <time>2010-05-16T09:40:39Z</time>
      </trkpt>
      <trkpt lat="45.74601" lon="6.00901">
        <ele>580</ele>
        <time>2010-05-16T09:40:49Z</time>
      </trkpt>
      <trkpt lat="45.74615" lon="6.00906">
        <ele>582</ele>
        <time>2010-05-16T09:40:59Z</time>
      </trkpt>
      <trkpt lat="45.74632" lon="6.00906">
        <ele>584</ele>
        <time>2010-05-16T09:41:09Z</time>
      </trkpt>
      <trkpt lat="45.74644" lon="6.00909">
        <ele>585</ele>
        <time>2010-05-16T09:41:19Z</time>
      </trkpt>
      <trkpt lat="45.74659" lon="6.00917">
        <ele>587</ele>
        <time>2010-05-16T09:41:29Z</time>
      </trkpt>
      <trkpt lat="45.74673" lon="6.00921">
        <ele>587</ele>
        <time>2010-05-16T09:41:39Z</time>
      </trkpt>
      <trkpt lat="45.74686" lon="6.00921">
        <ele>587</ele>
        <time>2010-05-16T09:41:49Z</time>
      </trkpt>
      <trkpt lat="45.74694" lon="6.00934">
        <ele>587</ele>
        <time>2010-05-16T09:41:59Z</time>
      </trkpt>
      <trkpt lat="45.74703" lon="6.00954">
        <ele>587</ele>
        <time>2010-05-16T09:42:09Z</time>
      </trkpt>
      <trkpt lat="45.74732" lon="6.00977">
        <ele>587</ele>
        <time>2010-05-16T09:42:19Z</time>
      </trkpt>
      <trkpt lat="45.74769" lon="6.00958">
        <ele>581</ele>
        <time>2010-05-16T09:42:29Z</time>
      </trkpt>
      <trkpt lat="45.74809" lon="6.00923">
        <ele>577</ele>
        <time>2010-05-16T09:42:39Z</time>
      </trkpt>
      <trkpt lat="45.74842" lon="6.00891">
        <ele>573</ele>
        <time>2010-05-16T09:42:49Z</time>
      </trkpt>
      <trkpt lat="45.74872" lon="6.00869">
        <ele>567</ele>
        <time>2010-05-16T09:42:59Z</time>
      </trkpt>
      <trkpt lat="45.7487" lon="6.00808">
        <ele>561</ele>
        <time>2010-05-16T09:43:09Z</time>
      </trkpt>
      <trkpt lat="45.74892" lon="6.00752">
        <ele>556</ele>
        <time>2010-05-16T09:43:19Z</time>
      </trkpt>
      <trkpt lat="45.74931" lon="6.00696">
        <ele>552</ele>
        <time>2010-05-16T09:43:29Z</time>
      </trkpt>
      <trkpt lat="45.74937" lon="6.00663">
        <ele>547</ele>
        <time>2010-05-16T09:43:39Z</time>
      </trkpt>
      <trkpt lat="45.7491" lon="6.00644">
        <ele>544</ele>
        <time>2010-05-16T09:43:49Z</time>
      </trkpt>
      <trkpt lat="45.74885" lon="6.00607">
        <ele>542</ele>
        <time>2010-05-16T09:43:59Z</time>
      </trkpt>
      <trkpt lat="45.74864" lon="6.00591">
        <ele>539</ele>
        <time>2010-05-16T09:44:09Z</time>
      </trkpt>
      <trkpt lat="45.74859" lon="6.00559">
        <ele>537</ele>
        <time>2010-05-16T09:44:19Z</time>
      </trkpt>
      <trkpt lat="45.74854" lon="6.00514">
        <ele>536</ele>
        <time>2010-05-16T09:44:29Z</time>
      </trkpt>
      <trkpt lat="45.74842" lon="6.0048">
        <ele>534</ele>
        <time>2010-05-16T09:44:39Z</time>
      </trkpt>
      <trkpt lat="45.74816" lon="6.00413">
        <ele>531</ele>
        <time>2010-05-16T09:44:49Z</time>
      </trkpt>
      <trkpt lat="45.74783" lon="6.00328">
        <ele>528</ele>
        <time>2010-05-16T09:44:59Z</time>
      </trkpt>
      <trkpt lat="45.74762" lon="6.00249">
        <ele>525</ele>
        <time>2010-05-16T09:45:09Z</time>
      </trkpt>
      <trkpt lat="45.74741" lon="6.00161">
        <ele>521</ele>
        <time>2010-05-16T09:45:19Z</time>
      </trkpt>
      <trkpt lat="45.74714" lon="6.00079">
        <ele>519</ele>
        <time>2010-05-16T09:45:29Z</time>
      </trkpt>
      <trkpt lat="45.74689" lon="6.00007">
        <ele>517</ele>
        <time>2010-05-16T09:45:39Z</time>
      </trkpt>
      <trkpt lat="45.74668" lon="5.99951">
        <ele>517</ele>
        <time>2010-05-16T09:45:49Z</time>
      </trkpt>
      <trkpt lat="45.74653" lon="5.99894">
        <ele>517</ele>
        <time>2010-05-16T09:45:59Z</time>
      </trkpt>
      <trkpt lat="45.7463" lon="5.99845">
        <ele>517</ele>
        <time>2010-05-16T09:46:09Z</time>
      </trkpt>
      <trkpt lat="45.74602" lon="5.99812">
        <ele>517</ele>
        <time>2010-05-16T09:46:19Z</time>
      </trkpt>
      <trkpt lat="45.74578" lon="5.99789">
        <ele>517</ele>
        <time>2010-05-16T09:46:29Z</time>
      </trkpt>
      <trkpt lat="45.74558" lon="5.99767">
        <ele>517</ele>
        <time>2010-05-16T09:46:39Z</time>
      </trkpt>
      <trkpt lat="45.74539" lon="5.99739">
        <ele>517</ele>
        <time>2010-05-16T09:46:49Z</time>
      </trkpt>
      <trkpt lat="45.74518" lon="5.99709">
        <ele>518</ele>
        <time>2010-05-16T09:46:59Z</time>
      </trkpt>
      <trkpt lat="45.74498" lon="5.99681">
        <ele>518</ele>
        <time>2010-05-16T09:47:09Z</time>
      </trkpt>
      <trkpt lat="45.74481" lon="5.99658">
        <ele>518</ele>
        <time>2010-05-16T09:47:19Z</time>
      </trkpt>
      <trkpt lat="45.74459" lon="5.99628">
        <ele>518</ele>
        <time>2010-05-16T09:47:29Z</time>
      </trkpt>
      <trkpt lat="45.7444" lon="5.99602">
        <ele>518</ele>
        <time>2010-05-16T09:47:39Z</time>
      </trkpt>
      <trkpt lat="45.74418" lon="5.9958">
        <ele>519</ele>
        <time>2010-05-16T09:47:49Z</time>
      </trkpt>
      <trkpt lat="45.74391" lon="5.99557">
        <ele>519</ele>
        <time>2010-05-16T09:47:59Z</time>
      </trkpt>
      <trkpt lat="45.74372" lon="5.99538">
        <ele>519</ele>
        <time>2010-05-16T09:48:09Z</time>
      </trkpt>
      <trkpt lat="45.7435" lon="5.99518">
        <ele>519</ele>
        <time>2010-05-16T09:48:19Z</time>
      </trkpt>
      <trkpt lat="45.74334" lon="5.99501">
        <ele>519</ele>
        <time>2010-05-16T09:48:29Z</time>
      </trkpt>
      <trkpt lat="45.74353" lon="5.9948">
        <ele>519</ele>
        <time>2010-05-16T09:48:39Z</time>
      </trkpt>
      <trkpt lat="45.74383" lon="5.99453">
        <ele>519</ele>
        <time>2010-05-16T09:48:49Z</time>
      </trkpt>
      <trkpt lat="45.74421" lon="5.99406">
        <ele>519</ele>
        <time>2010-05-16T09:48:59Z</time>
      </trkpt>
      <trkpt lat="45.74464" lon="5.99344">
        <ele>516</ele>
        <time>2010-05-16T09:49:09Z</time>
      </trkpt>
      <trkpt lat="45.7452" lon="5.99275">
        <ele>512</ele>
        <time>2010-05-16T09:49:19Z</time>
      </trkpt>
      <trkpt lat="45.74567" lon="5.99231">
        <ele>512</ele>
        <time>2010-05-16T09:49:29Z</time>
      </trkpt>
      <trkpt lat="45.74596" lon="5.99201">
        <ele>512</ele>
        <time>2010-05-16T09:49:39Z</time>
      </trkpt>
      <trkpt lat="45.7461" lon="5.99185">
        <ele>512</ele>
        <time>2010-05-16T09:49:49Z</time>
      </trkpt>
      <trkpt lat="45.74638" lon="5.99153">
        <ele>510</ele>
        <time>2010-05-16T09:49:59Z</time>
      </trkpt>
      <trkpt lat="45.74672" lon="5.9911">
        <ele>508</ele>
        <time>2010-05-16T09:50:09Z</time>
      </trkpt>
      <trkpt lat="45.74653" lon="5.99059">
        <ele>504</ele>
        <time>2010-05-16T09:50:19Z</time>
      </trkpt>
      <trkpt lat="45.74631" lon="5.99">
        <ele>504</ele>
        <time>2010-05-16T09:50:29Z</time>
      </trkpt>
      <trkpt lat="45.74603" lon="5.98949">
        <ele>503</ele>
        <time>2010-05-16T09:50:39Z</time>
      </trkpt>
      <trkpt lat="45.74579" lon="5.98925">
        <ele>503</ele>
        <time>2010-05-16T09:50:49Z</time>
      </trkpt>
      <trkpt lat="45.74541" lon="5.9892">
        <ele>500</ele>
        <time>2010-05-16T09:50:59Z</time>
      </trkpt>
      <trkpt lat="45.74501" lon="5.98927">
        <ele>497</ele>
        <time>2010-05-16T09:51:09Z</time>
      </trkpt>
      <trkpt lat="45.74466" lon="5.9897">
        <ele>493</ele>
        <time>2010-05-16T09:51:19Z</time>
      </trkpt>
      <trkpt lat="45.74423" lon="5.9897">
        <ele>489</ele>
        <time>2010-05-16T09:51:29Z</time>
      </trkpt>
      <trkpt lat="45.7443" lon="5.98929">
        <ele>489</ele>
        <time>2010-05-16T09:51:39Z</time>
      </trkpt>
      <trkpt lat="45.74434" lon="5.989">
        <ele>489</ele>
        <time>2010-05-16T09:51:49Z</time>
      </trkpt>
      <trkpt lat="45.74433" lon="5.9888">
        <ele>489</ele>
        <time>2010-05-16T09:51:59Z</time>
      </trkpt>
      <trkpt lat="45.74429" lon="5.9886">
        <ele>489</ele>
        <time>2010-05-16T09:52:09Z</time>
      </trkpt>
      <trkpt lat="45.74421" lon="5.98845">
        <ele>489</ele>
        <time>2010-05-16T09:52:19Z</time>
      </trkpt>
      <trkpt lat="45.74408" lon="5.98826">
        <ele>489</ele>
        <time>2010-05-16T09:52:29Z</time>
      </trkpt>
      <trkpt lat="45.74391" lon="5.98801">
        <ele>489</ele>
        <time>2010-05-16T09:52:39Z</time>
      </trkpt>
      <trkpt lat="45.74375" lon="5.98774">
        <ele>489</ele>
        <time>2010-05-16T09:52:49Z</time>
      </trkpt>
      <trkpt lat="45.74361" lon="5.98744">
        <ele>489</ele>
        <time>2010-05-16T09:52:59Z</time>
      </trkpt>
      <trkpt lat="45.74354" lon="5.98692">
        <ele>489</ele>
        <time>2010-05-16T09:53:09Z</time>
      </trkpt>
      <trkpt lat="45.7432" lon="5.98653">
        <ele>488</ele>
        <time>2010-05-16T09:53:19Z</time>
      </trkpt>
      <trkpt lat="45.74283" lon="5.98629">
        <ele>487</ele>
        <time>2010-05-16T09:53:29Z</time>
      </trkpt>
      <trkpt lat="45.74253" lon="5.98626">
        <ele>487</ele>
        <time>2010-05-16T09:53:39Z</time>
      </trkpt>
      <trkpt lat="45.7423" lon="5.98635">
        <ele>487</ele>
        <time>2010-05-16T09:53:49Z</time>
      </trkpt>
      <trkpt lat="45.7421" lon="5.98647">
        <ele>487</ele>
        <time>2010-05-16T09:53:59Z</time>
      </trkpt>
      <trkpt lat="45.7419" lon="5.9866">
        <ele>487</ele>
        <time>2010-05-16T09:54:09Z</time>
      </trkpt>
      <trkpt lat="45.74169" lon="5.98663">
        <ele>487</ele>
        <time>2010-05-16T09:54:19Z</time>
      </trkpt>
      <trkpt lat="45.7415" lon="5.98659">
        <ele>487</ele>
        <time>2010-05-16T09:54:29Z</time>
      </trkpt>
      <trkpt lat="45.74136" lon="5.98627">
        <ele>487</ele>
        <time>2010-05-16T09:54:39Z</time>
      </trkpt>
      <trkpt lat="45.74121" lon="5.98597">
        <ele>487</ele>
        <time>2010-05-16T09:54:49Z</time>
      </trkpt>
      <trkpt lat="45.74109" lon="5.98572">
        <ele>487</ele>
        <time>2010-05-16T09:54:59Z</time>
      </trkpt>
      <trkpt lat="45.74096" lon="5.98548">
        <ele>487</ele>
        <time>2010-05-16T09:55:09Z</time>
      </trkpt>
      <trkpt lat="45.74084" lon="5.98525">
        <ele>487</ele>
        <time>2010-05-16T09:55:19Z</time>
      </trkpt>
      <trkpt lat="45.74063" lon="5.98484">
        <ele>487</ele>
        <time>2010-05-16T09:55:29Z</time>
      </trkpt>
      <trkpt lat="45.74042" lon="5.98448">
        <ele>487</ele>
        <time>2010-05-16T09:55:39Z</time>
      </trkpt>
      <trkpt lat="45.74025" lon="5.98468">
        <ele>487</ele>
        <time>2010-05-16T09:55:49Z</time>
      </trkpt>
      <trkpt lat="45.74007" lon="5.98496">
        <ele>488</ele>
        <time>2010-05-16T09:55:59Z</time>
      </trkpt>
      <trkpt lat="45.73989" lon="5.98521">
        <ele>488</ele>
        <time>2010-05-16T09:56:09Z</time>
      </trkpt>
      <trkpt lat="45.73973" lon="5.98542">
        <ele>489</ele>
        <time>2010-05-16T09:56:19Z</time>
      </trkpt>
      <trkpt lat="45.73956" lon="5.98565">
        <ele>489</ele>
        <time>2010-05-16T09:56:29Z</time>
      </trkpt>
      <trkpt lat="45.73957" lon="5.98568">
        <ele>499</ele>
        <time>2010-05-16T09:56:47Z</time>
      </trkpt>
      <trkpt lat="45.73937" lon="5.98599">
        <ele>499</ele>
        <time>2010-05-16T09:56:57Z</time>
      </trkpt>
      <trkpt lat="45.73916" lon="5.98637">
        <ele>499</ele>
        <time>2010-05-16T09:57:07Z</time>
      </trkpt>
      <trkpt lat="45.73889" lon="5.98656">
        <ele>499</ele>
        <time>2010-05-16T09:57:17Z</time>
      </trkpt>
      <trkpt lat="45.73862" lon="5.98666">
        <ele>499</ele>
        <time>2010-05-16T09:57:27Z</time>
      </trkpt>
      <trkpt lat="45.73842" lon="5.98674">
        <ele>499</ele>
        <time>2010-05-16T09:57:37Z</time>
      </trkpt>
      <trkpt lat="45.73828" lon="5.98676">
        <ele>499</ele>
        <time>2010-05-16T09:57:47Z</time>
      </trkpt>
      <trkpt lat="45.73812" lon="5.98677">
        <ele>500</ele>
        <time>2010-05-16T09:57:58Z</time>
      </trkpt>
      <trkpt lat="45.73799" lon="5.98673">
        <ele>500</ele>
        <time>2010-05-16T09:58:08Z</time>
      </trkpt>
      <trkpt lat="45.7378" lon="5.9867">
        <ele>501</ele>
        <time>2010-05-16T09:58:21Z</time>
      </trkpt>
      <trkpt lat="45.73762" lon="5.98671">
        <ele>501</ele>
        <time>2010-05-16T09:58:31Z</time>
      </trkpt>
      <trkpt lat="45.73745" lon="5.98672">
        <ele>501</ele>
        <time>2010-05-16T09:58:41Z</time>
      </trkpt>
      <trkpt lat="45.73729" lon="5.98674">
        <ele>501</ele>
        <time>2010-05-16T09:58:51Z</time>
      </trkpt>
      <trkpt lat="45.73713" lon="5.9868">
        <ele>501</ele>
        <time>2010-05-16T09:59:01Z</time>
      </trkpt>
      <trkpt lat="45.73698" lon="5.98691">
        <ele>501</ele>
        <time>2010-05-16T09:59:11Z</time>
      </trkpt>
      <trkpt lat="45.73685" lon="5.98704">
        <ele>501</ele>
        <time>2010-05-16T09:59:21Z</time>
      </trkpt>
      <trkpt lat="45.73673" lon="5.9872">
        <ele>502</ele>
        <time>2010-05-16T09:59:31Z</time>
      </trkpt>
      <trkpt lat="45.73662" lon="5.98735">
        <ele>503</ele>
        <time>2010-05-16T09:59:41Z</time>
      </trkpt>
      <trkpt lat="45.7365" lon="5.98751">
        <ele>505</ele>
        <time>2010-05-16T09:59:51Z</time>
      </trkpt>
      <trkpt lat="45.73639" lon="5.98771">
        <ele>506</ele>
        <time>2010-05-16T10:00:01Z</time>
      </trkpt>
      <trkpt lat="45.73631" lon="5.98792">
        <ele>507</ele>
        <time>2010-05-16T10:00:11Z</time>
      </trkpt>
      <trkpt lat="45.73623" lon="5.98813">
        <ele>509</ele>
        <time>2010-05-16T10:00:21Z</time>
      </trkpt>
      <trkpt lat="45.73619" lon="5.9883">
        <ele>511</ele>
        <time>2010-05-16T10:00:31Z</time>
      </trkpt>
      <trkpt lat="45.73636" lon="5.98829">
        <ele>514</ele>
        <time>2010-05-16T10:00:41Z</time>
      </trkpt>
      <trkpt lat="45.7365" lon="5.98827">
        <ele>516</ele>
        <time>2010-05-16T10:00:51Z</time>
      </trkpt>
      <trkpt lat="45.73659" lon="5.9883">
        <ele>517</ele>
        <time>2010-05-16T10:01:01Z</time>
      </trkpt>
      <trkpt lat="45.7367" lon="5.9883">
        <ele>518</ele>
        <time>2010-05-16T10:01:12Z</time>
      </trkpt>
      <trkpt lat="45.73681" lon="5.98832">
        <ele>518</ele>
        <time>2010-05-16T10:01:22Z</time>
      </trkpt>
      <trkpt lat="45.73691" lon="5.98837">
        <ele>519</ele>
        <time>2010-05-16T10:01:32Z</time>
      </trkpt>
      <trkpt lat="45.7369" lon="5.98837">
        <ele>520</ele>
        <time>2010-05-16T10:01:42Z</time>
      </trkpt>
      <trkpt lat="45.73698" lon="5.98841">
        <ele>520</ele>
        <time>2010-05-16T10:01:53Z</time>
      </trkpt>
      <trkpt lat="45.73707" lon="5.98843">
        <ele>520</ele>
        <time>2010-05-16T10:02:03Z</time>
      </trkpt>
      <trkpt lat="45.73719" lon="5.98848">
        <ele>524</ele>
        <time>2010-05-16T10:02:14Z</time>
      </trkpt>
      <trkpt lat="45.73727" lon="5.98852">
        <ele>524</ele>
        <time>2010-05-16T10:02:24Z</time>
      </trkpt>
      <trkpt lat="45.73745" lon="5.98854">
        <ele>524</ele>
        <time>2010-05-16T10:02:34Z</time>
      </trkpt>
      <trkpt lat="45.73767" lon="5.98861">
        <ele>524</ele>
        <time>2010-05-16T10:02:44Z</time>
      </trkpt>
      <trkpt lat="45.73788" lon="5.98869">
        <ele>524</ele>
        <time>2010-05-16T10:02:54Z</time>
      </trkpt>
      <trkpt lat="45.73806" lon="5.98875">
        <ele>524</ele>
        <time>2010-05-16T10:03:04Z</time>
      </trkpt>
      <trkpt lat="45.73833" lon="5.98881">
        <ele>524</ele>
        <time>2010-05-16T10:03:14Z</time>
      </trkpt>
      <trkpt lat="45.73864" lon="5.98888">
        <ele>524</ele>
        <time>2010-05-16T10:03:24Z</time>
      </trkpt>
      <trkpt lat="45.73892" lon="5.98902">
        <ele>524</ele>
        <time>2010-05-16T10:03:34Z</time>
      </trkpt>
      <trkpt lat="45.7392" lon="5.98916">
        <ele>524</ele>
        <time>2010-05-16T10:03:44Z</time>
      </trkpt>
      <trkpt lat="45.7395" lon="5.98938">
        <ele>524</ele>
        <time>2010-05-16T10:03:54Z</time>
      </trkpt>
      <trkpt lat="45.73977" lon="5.9896">
        <ele>524</ele>
        <time>2010-05-16T10:04:04Z</time>
      </trkpt>
      <trkpt lat="45.74007" lon="5.98989">
        <ele>524</ele>
        <time>2010-05-16T10:04:14Z</time>
      </trkpt>
      <trkpt lat="45.7404" lon="5.99023">
        <ele>522</ele>
        <time>2010-05-16T10:04:24Z</time>
      </trkpt>
      <trkpt lat="45.74065" lon="5.99052">
        <ele>522</ele>
        <time>2010-05-16T10:04:34Z</time>
      </trkpt>
      <trkpt lat="45.74082" lon="5.99088">
        <ele>522</ele>
        <time>2010-05-16T10:04:44Z</time>
      </trkpt>
      <trkpt lat="45.74081" lon="5.99109">
        <ele>522</ele>
        <time>2010-05-16T10:04:54Z</time>
      </trkpt>
      <trkpt lat="45.74074" lon="5.99132">
        <ele>522</ele>
        <time>2010-05-16T10:05:04Z</time>
      </trkpt>
      <trkpt lat="45.74067" lon="5.99154">
        <ele>522</ele>
        <time>2010-05-16T10:05:14Z</time>
      </trkpt>
      <trkpt lat="45.74059" lon="5.99177">
        <ele>522</ele>
        <time>2010-05-16T10:05:24Z</time>
      </trkpt>
      <trkpt lat="45.74065" lon="5.99199">
        <ele>522</ele>
        <time>2010-05-16T10:05:34Z</time>
      </trkpt>
      <trkpt lat="45.74077" lon="5.99217">
        <ele>522</ele>
        <time>2010-05-16T10:05:44Z</time>
      </trkpt>
      <trkpt lat="45.74091" lon="5.99241">
        <ele>522</ele>
        <time>2010-05-16T10:05:54Z</time>
      </trkpt>
      <trkpt lat="45.74102" lon="5.99264">
        <ele>522</ele>
        <time>2010-05-16T10:06:04Z</time>
      </trkpt>
      <trkpt lat="45.74112" lon="5.99291">
        <ele>522</ele>
        <time>2010-05-16T10:06:14Z</time>
      </trkpt>
      <trkpt lat="45.74129" lon="5.99324">
        <ele>522</ele>
        <time>2010-05-16T10:06:24Z</time>
      </trkpt>
      <trkpt lat="45.74152" lon="5.9934">
        <ele>522</ele>
        <time>2010-05-16T10:06:34Z</time>
      </trkpt>
      <trkpt lat="45.74189" lon="5.99373">
        <ele>522</ele>
        <time>2010-05-16T10:06:44Z</time>
      </trkpt>
      <trkpt lat="45.74222" lon="5.99409">
        <ele>520</ele>
        <time>2010-05-16T10:06:54Z</time>
      </trkpt>
      <trkpt lat="45.74264" lon="5.99439">
        <ele>519</ele>
        <time>2010-05-16T10:07:05Z</time>
      </trkpt>
      <trkpt lat="45.74293" lon="5.99462">
        <ele>519</ele>
        <time>2010-05-16T10:07:15Z</time>
      </trkpt>
      <trkpt lat="45.74316" lon="5.99485">
        <ele>519</ele>
        <time>2010-05-16T10:07:25Z</time>
      </trkpt>
      <trkpt lat="45.74331" lon="5.99497">
        <ele>519</ele>
        <time>2010-05-16T10:07:35Z</time>
      </trkpt>
      <trkpt lat="45.7435" lon="5.99517">
        <ele>519</ele>
        <time>2010-05-16T10:07:46Z</time>
      </trkpt>
      <trkpt lat="45.74375" lon="5.99542">
        <ele>519</ele>
        <time>2010-05-16T10:07:57Z</time>
      </trkpt>
      <trkpt lat="45.74401" lon="5.99565">
        <ele>519</ele>
        <time>2010-05-16T10:08:07Z</time>
      </trkpt>
      <trkpt lat="45.7443" lon="5.99588">
        <ele>519</ele>
        <time>2010-05-16T10:08:17Z</time>
      </trkpt>
      <trkpt lat="45.74456" lon="5.99621">
        <ele>519</ele>
        <time>2010-05-16T10:08:28Z</time>
      </trkpt>
      <trkpt lat="45.74476" lon="5.99648">
        <ele>519</ele>
        <time>2010-05-16T10:08:38Z</time>
      </trkpt>
      <trkpt lat="45.74491" lon="5.99668">
        <ele>519</ele>
        <time>2010-05-16T10:08:48Z</time>
      </trkpt>
      <trkpt lat="45.74509" lon="5.99691">
        <ele>519</ele>
        <time>2010-05-16T10:08:58Z</time>
      </trkpt>
      <trkpt lat="45.74532" lon="5.99725">
        <ele>520</ele>
        <time>2010-05-16T10:09:08Z</time>
      </trkpt>
      <trkpt lat="45.74554" lon="5.99757">
        <ele>520</ele>
        <time>2010-05-16T10:09:19Z</time>
      </trkpt>
      <trkpt lat="45.74578" lon="5.99787">
        <ele>520</ele>
        <time>2010-05-16T10:09:29Z</time>
      </trkpt>
      <trkpt lat="45.74611" lon="5.99819">
        <ele>519</ele>
        <time>2010-05-16T10:09:39Z</time>
      </trkpt>
      <trkpt lat="45.74633" lon="5.9985">
        <ele>518</ele>
        <time>2010-05-16T10:09:49Z</time>
      </trkpt>
      <trkpt lat="45.74654" lon="5.99895">
        <ele>517</ele>
        <time>2010-05-16T10:10:00Z</time>
      </trkpt>
      <trkpt lat="45.74662" lon="5.99931">
        <ele>517</ele>
        <time>2010-05-16T10:10:10Z</time>
      </trkpt>
      <trkpt lat="45.74672" lon="5.99962">
        <ele>517</ele>
        <time>2010-05-16T10:10:21Z</time>
      </trkpt>
      <trkpt lat="45.74688" lon="6.00005">
        <ele>517</ele>
        <time>2010-05-16T10:10:31Z</time>
      </trkpt>
      <trkpt lat="45.74701" lon="6.00042">
        <ele>517</ele>
        <time>2010-05-16T10:10:41Z</time>
      </trkpt>
      <trkpt lat="45.74715" lon="6.00081">
        <ele>517</ele>
        <time>2010-05-16T10:10:51Z</time>
      </trkpt>
      <trkpt lat="45.74726" lon="6.00111">
        <ele>517</ele>
        <time>2010-05-16T10:11:01Z</time>
      </trkpt>
      <trkpt lat="45.74736" lon="6.00142">
        <ele>517</ele>
        <time>2010-05-16T10:11:12Z</time>
      </trkpt>
      <trkpt lat="45.74744" lon="6.0017">
        <ele>517</ele>
        <time>2010-05-16T10:11:22Z</time>
      </trkpt>
      <trkpt lat="45.74749" lon="6.00197">
        <ele>517</ele>
        <time>2010-05-16T10:11:32Z</time>
      </trkpt>
      <trkpt lat="45.74757" lon="6.00232">
        <ele>517</ele>
        <time>2010-05-16T10:11:42Z</time>
      </trkpt>
      <trkpt lat="45.74764" lon="6.00256">
        <ele>517</ele>
        <time>2010-05-16T10:11:52Z</time>
      </trkpt>
      <trkpt lat="45.7477" lon="6.00274">
        <ele>519</ele>
        <time>2010-05-16T10:12:02Z</time>
      </trkpt>
      <trkpt lat="45.74775" lon="6.00294">
        <ele>520</ele>
        <time>2010-05-16T10:12:12Z</time>
      </trkpt>
      <trkpt lat="45.7478" lon="6.00315">
        <ele>520</ele>
        <time>2010-05-16T10:12:22Z</time>
      </trkpt>
      <trkpt lat="45.74777" lon="6.00325">
        <ele>521</ele>
        <time>2010-05-16T10:12:32Z</time>
      </trkpt>
      <trkpt lat="45.74787" lon="6.00342">
        <ele>523</ele>
        <time>2010-05-16T10:12:43Z</time>
      </trkpt>
      <trkpt lat="45.74795" lon="6.00369">
        <ele>524</ele>
        <time>2010-05-16T10:12:53Z</time>
      </trkpt>
      <trkpt lat="45.74805" lon="6.0039">
        <ele>524</ele>
        <time>2010-05-16T10:13:04Z</time>
      </trkpt>
      <trkpt lat="45.74813" lon="6.00408">
        <ele>524</ele>
        <time>2010-05-16T10:13:14Z</time>
      </trkpt>
      <trkpt lat="45.74821" lon="6.00424">
        <ele>525</ele>
        <time>2010-05-16T10:13:24Z</time>
      </trkpt>
      <trkpt lat="45.74828" lon="6.00439">
        <ele>526</ele>
        <time>2010-05-16T10:13:34Z</time>
      </trkpt>
      <trkpt lat="45.74834" lon="6.00456">
        <ele>527</ele>
        <time>2010-05-16T10:13:44Z</time>
      </trkpt>
      <trkpt lat="45.7484" lon="6.00474">
        <ele>528</ele>
        <time>2010-05-16T10:13:54Z</time>
      </trkpt>
      <trkpt lat="45.7484" lon="6.00491">
        <ele>530</ele>
        <time>2010-05-16T10:14:04Z</time>
      </trkpt>
      <trkpt lat="45.74828" lon="6.00504">
        <ele>531</ele>
        <time>2010-05-16T10:14:14Z</time>
      </trkpt>
      <trkpt lat="45.74815" lon="6.00513">
        <ele>532</ele>
        <time>2010-05-16T10:14:24Z</time>
      </trkpt>
      <trkpt lat="45.74802" lon="6.00524">
        <ele>532</ele>
        <time>2010-05-16T10:14:34Z</time>
      </trkpt>
      <trkpt lat="45.7479" lon="6.00537">
        <ele>532</ele>
        <time>2010-05-16T10:14:45Z</time>
      </trkpt>
      <trkpt lat="45.74778" lon="6.00556">
        <ele>534</ele>
        <time>2010-05-16T10:14:55Z</time>
      </trkpt>
      <trkpt lat="45.74765" lon="6.00569">
        <ele>535</ele>
        <time>2010-05-16T10:15:05Z</time>
      </trkpt>
      <trkpt lat="45.74753" lon="6.00578">
        <ele>535</ele>
        <time>2010-05-16T10:15:16Z</time>
      </trkpt>
      <trkpt lat="45.7474" lon="6.00588">
        <ele>536</ele>
        <time>2010-05-16T10:15:26Z</time>
      </trkpt>
      <trkpt lat="45.74732" lon="6.00595">
        <ele>532</ele>
        <time>2010-05-16T10:15:42Z</time>
      </trkpt>
      <trkpt lat="45.74732" lon="6.00593">
        <ele>522</ele>
        <time>2010-05-16T10:15:56Z</time>
      </trkpt>
      <trkpt lat="45.74728" lon="6.00586">
        <ele>522</ele>
        <time>2010-05-16T10:16:07Z</time>
      </trkpt>
      <trkpt lat="45.74725" lon="6.00592">
        <ele>530</ele>
        <time>2010-05-16T10:16:18Z</time>
      </trkpt>
      <trkpt lat="45.74707" lon="6.00592">
        <ele>535</ele>
        <time>2010-05-16T10:16:28Z</time>
      </trkpt>
      <trkpt lat="45.7469" lon="6.00593">
        <ele>536</ele>
        <time>2010-05-16T10:16:38Z</time>
      </trkpt>
      <trkpt lat="45.74676" lon="6.00594">
        <ele>537</ele>
        <time>2010-05-16T10:16:49Z</time>
      </trkpt>
      <trkpt lat="45.74665" lon="6.00597">
        <ele>539</ele>
        <time>2010-05-16T10:16:59Z</time>
      </trkpt>
      <trkpt lat="45.74654" lon="6.00602">
        <ele>540</ele>
        <time>2010-05-16T10:17:09Z</time>
      </trkpt>
      <trkpt lat="45.74643" lon="6.00612">
        <ele>541</ele>
        <time>2010-05-16T10:17:20Z</time>
      </trkpt>
      <trkpt lat="45.74633" lon="6.0062">
        <ele>543</ele>
        <time>2010-05-16T10:17:30Z</time>
      </trkpt>
      <trkpt lat="45.74625" lon="6.00624">
        <ele>547</ele>
        <time>2010-05-16T10:17:40Z</time>
      </trkpt>
      <trkpt lat="45.74615" lon="6.00627">
        <ele>548</ele>
        <time>2010-05-16T10:17:50Z</time>
      </trkpt>
      <trkpt lat="45.74604" lon="6.00627">
        <ele>545</ele>
        <time>2010-05-16T10:18:00Z</time>
      </trkpt>
      <trkpt lat="45.746" lon="6.00624">
        <ele>540</ele>
        <time>2010-05-16T10:18:11Z</time>
      </trkpt>
      <trkpt lat="45.74592" lon="6.00613">
        <ele>543</ele>
        <time>2010-05-16T10:18:21Z</time>
      </trkpt>
      <trkpt lat="45.74581" lon="6.00599">
        <ele>555</ele>
        <time>2010-05-16T10:18:31Z</time>
      </trkpt>
      <trkpt lat="45.7457" lon="6.00588">
        <ele>564</ele>
        <time>2010-05-16T10:18:41Z</time>
      </trkpt>
      <trkpt lat="45.74555" lon="6.0059">
        <ele>564</ele>
        <time>2010-05-16T10:18:51Z</time>
      </trkpt>
      <trkpt lat="45.74541" lon="6.00602">
        <ele>564</ele>
        <time>2010-05-16T10:19:02Z</time>
      </trkpt>
      <trkpt lat="45.74534" lon="6.00617">
        <ele>563</ele>
        <time>2010-05-16T10:19:12Z</time>
      </trkpt>
      <trkpt lat="45.74529" lon="6.00627">
        <ele>566</ele>
        <time>2010-05-16T10:19:22Z</time>
      </trkpt>
      <trkpt lat="45.74529" lon="6.00639">
        <ele>572</ele>
        <time>2010-05-16T10:19:32Z</time>
      </trkpt>
      <trkpt lat="45.74527" lon="6.00653">
        <ele>575</ele>
        <time>2010-05-16T10:19:42Z</time>
      </trkpt>
      <trkpt lat="45.74524" lon="6.00667">
        <ele>581</ele>
        <time>2010-05-16T10:19:52Z</time>
      </trkpt>
      <trkpt lat="45.74522" lon="6.00681">
        <ele>586</ele>
        <time>2010-05-16T10:20:02Z</time>
      </trkpt>
      <trkpt lat="45.74523" lon="6.00707">
        <ele>587</ele>
        <time>2010-05-16T10:20:12Z</time>
      </trkpt>
      <trkpt lat="45.74527" lon="6.00726">
        <ele>587</ele>
        <time>2010-05-16T10:20:22Z</time>
      </trkpt>
      <trkpt lat="45.74529" lon="6.00738">
        <ele>587</ele>
        <time>2010-05-16T10:20:33Z</time>
      </trkpt>
      <trkpt lat="45.74532" lon="6.00753">
        <ele>593</ele>
        <time>2010-05-16T10:20:44Z</time>
      </trkpt>
      <trkpt lat="45.74533" lon="6.00777">
        <ele>592</ele>
        <time>2010-05-16T10:20:54Z</time>
      </trkpt>
      <trkpt lat="45.74535" lon="6.00786">
        <ele>585</ele>
        <time>2010-05-16T10:21:04Z</time>
      </trkpt>
      <trkpt lat="45.74537" lon="6.00799">
        <ele>579</ele>
        <time>2010-05-16T10:21:15Z</time>
      </trkpt>
      <trkpt lat="45.74541" lon="6.0081">
        <ele>579</ele>
        <time>2010-05-16T10:21:25Z</time>
      </trkpt>
      <trkpt lat="45.74552" lon="6.0082">
        <ele>581</ele>
        <time>2010-05-16T10:21:35Z</time>
      </trkpt>
      <trkpt lat="45.7457" lon="6.00826">
        <ele>581</ele>
        <time>2010-05-16T10:21:45Z</time>
      </trkpt>
      <trkpt lat="45.7458" lon="6.00825">
        <ele>580</ele>
        <time>2010-05-16T10:21:56Z</time>
      </trkpt>
      <trkpt lat="45.74589" lon="6.00831">
        <ele>580</ele>
        <time>2010-05-16T10:22:06Z</time>
      </trkpt>
      <trkpt lat="45.74596" lon="6.00843">
        <ele>580</ele>
        <time>2010-05-16T10:22:17Z</time>
      </trkpt>
      <trkpt lat="45.74598" lon="6.00853">
        <ele>580</ele>
        <time>2010-05-16T10:22:27Z</time>
      </trkpt>
      <trkpt lat="45.74598" lon="6.00866">
        <ele>580</ele>
        <time>2010-05-16T10:22:37Z</time>
      </trkpt>
      <trkpt lat="45.74599" lon="6.00877">
        <ele>580</ele>
        <time>2010-05-16T10:22:47Z</time>
      </trkpt>
      <trkpt lat="45.74598" lon="6.00888">
        <ele>582</ele>
        <time>2010-05-16T10:22:58Z</time>
      </trkpt>
      <trkpt lat="45.74601" lon="6.00898">
        <ele>584</ele>
        <time>2010-05-16T10:23:08Z</time>
      </trkpt>
      <trkpt lat="45.74598" lon="6.009">
        <ele>584</ele>
        <time>2010-05-16T10:23:18Z</time>
      </trkpt>
      <trkpt lat="45.74596" lon="6.00903">
        <ele>584</ele>
        <time>2010-05-16T10:23:28Z</time>
      </trkpt>
      <trkpt lat="45.74596" lon="6.00905">
        <ele>584</ele>
        <time>2010-05-16T10:23:39Z</time>
      </trkpt>
      <trkpt lat="45.74597" lon="6.00905">
        <ele>584</ele>
        <time>2010-05-16T10:23:49Z</time>
      </trkpt>
      <trkpt lat="45.74595" lon="6.00906">
        <ele>584</ele>
        <time>2010-05-16T10:23:59Z</time>
      </trkpt>
      <trkpt lat="45.746" lon="6.00906">
        <ele>583</ele>
        <time>2010-05-16T10:24:09Z</time>
      </trkpt>
      <trkpt lat="45.74604" lon="6.00906">
        <ele>582</ele>
        <time>2010-05-16T10:24:19Z</time>
      </trkpt>
      <trkpt lat="45.74623" lon="6.00904">
        <ele>582</ele>
        <time>2010-05-16T10:24:29Z</time>
      </trkpt>
      <trkpt lat="45.74637" lon="6.00906">
        <ele>582</ele>
        <time>2010-05-16T10:24:39Z</time>
      </trkpt>
      <trkpt lat="45.74651" lon="6.0091">
        <ele>582</ele>
        <time>2010-05-16T10:24:49Z</time>
      </trkpt>
      <trkpt lat="45.74665" lon="6.00929">
        <ele>582</ele>
        <time>2010-05-16T10:24:59Z</time>
      </trkpt>
      <trkpt lat="45.74669" lon="6.00951">
        <ele>582</ele>
        <time>2010-05-16T10:25:09Z</time>
      </trkpt>
      <trkpt lat="45.74674" lon="6.0097">
        <ele>586</ele>
        <time>2010-05-16T10:25:19Z</time>
      </trkpt>
      <trkpt lat="45.74679" lon="6.00986">
        <ele>587</ele>
        <time>2010-05-16T10:25:29Z</time>
      </trkpt>
      <trkpt lat="45.74683" lon="6.01004">
        <ele>589</ele>
        <time>2010-05-16T10:25:39Z</time>
      </trkpt>
      <trkpt lat="45.74689" lon="6.01022">
        <ele>589</ele>
        <time>2010-05-16T10:25:49Z</time>
      </trkpt>
      <trkpt lat="45.747" lon="6.01038">
        <ele>589</ele>
        <time>2010-05-16T10:25:59Z</time>
      </trkpt>
      <trkpt lat="45.74709" lon="6.01047">
        <ele>589</ele>
        <time>2010-05-16T10:26:09Z</time>
      </trkpt>
      <trkpt lat="45.74718" lon="6.01058">
        <ele>589</ele>
        <time>2010-05-16T10:26:20Z</time>
      </trkpt>
      <trkpt lat="45.7473" lon="6.01065">
        <ele>591</ele>
        <time>2010-05-16T10:26:31Z</time>
      </trkpt>
      <trkpt lat="45.74739" lon="6.01071">
        <ele>594</ele>
        <time>2010-05-16T10:26:41Z</time>
      </trkpt>
      <trkpt lat="45.74747" lon="6.01081">
        <ele>596</ele>
        <time>2010-05-16T10:26:51Z</time>
      </trkpt>
      <trkpt lat="45.74741" lon="6.01077">
        <ele>597</ele>
        <time>2010-05-16T10:27:01Z</time>
      </trkpt>
      <trkpt lat="45.74733" lon="6.01066">
        <ele>597</ele>
        <time>2010-05-16T10:27:12Z</time>
      </trkpt>
      <trkpt lat="45.74729" lon="6.01065">
        <ele>593</ele>
        <time>2010-05-16T10:27:22Z</time>
      </trkpt>
      <trkpt lat="45.74739" lon="6.01076">
        <ele>587</ele>
        <time>2010-05-16T10:27:32Z</time>
      </trkpt>
      <trkpt lat="45.74748" lon="6.01082">
        <ele>586</ele>
        <time>2010-05-16T10:27:42Z</time>
      </trkpt>
      <trkpt lat="45.74754" lon="6.01092">
        <ele>594</ele>
        <time>2010-05-16T10:27:52Z</time>
      </trkpt>
      <trkpt lat="45.74759" lon="6.0111">
        <ele>604</ele>
        <time>2010-05-16T10:28:02Z</time>
      </trkpt>
      <trkpt lat="45.74761" lon="6.01127">
        <ele>613</ele>
        <time>2010-05-16T10:28:12Z</time>
      </trkpt>
      <trkpt lat="45.7476" lon="6.01144">
        <ele>615</ele>
        <time>2010-05-16T10:28:22Z</time>
      </trkpt>
      <trkpt lat="45.74761" lon="6.01162">
        <ele>615</ele>
        <time>2010-05-16T10:28:33Z</time>
      </trkpt>
      <trkpt lat="45.74763" lon="6.01183">
        <ele>617</ele>
        <time>2010-05-16T10:28:43Z</time>
      </trkpt>
      <trkpt lat="45.74763" lon="6.01205">
        <ele>617</ele>
        <time>2010-05-16T10:28:53Z</time>
      </trkpt>
      <trkpt lat="45.74765" lon="6.01228">
        <ele>617</ele>
        <time>2010-05-16T10:29:03Z</time>
      </trkpt>
      <trkpt lat="45.74769" lon="6.01232">
        <ele>613</ele>
        <time>2010-05-16T10:29:13Z</time>
      </trkpt>
      <trkpt lat="45.74774" lon="6.01232">
        <ele>610</ele>
        <time>2010-05-16T10:29:23Z</time>
      </trkpt>
      <trkpt lat="45.74772" lon="6.01241">
        <ele>603</ele>
        <time>2010-05-16T10:29:34Z</time>
      </trkpt>
      <trkpt lat="45.74771" lon="6.01246">
        <ele>611</ele>
        <time>2010-05-16T10:29:48Z</time>
      </trkpt>
      <trkpt lat="45.74776" lon="6.01252">
        <ele>605</ele>
        <time>2010-05-16T10:30:04Z</time>
      </trkpt>
      <trkpt lat="45.74765" lon="6.01254">
        <ele>609</ele>
        <time>2010-05-16T10:30:14Z</time>
      </trkpt>
      <trkpt lat="45.74748" lon="6.01252">
        <ele>609</ele>
        <time>2010-05-16T10:30:24Z</time>
      </trkpt>
      <trkpt lat="45.7473" lon="6.01247">
        <ele>609</ele>
        <time>2010-05-16T10:30:34Z</time>
      </trkpt>
      <trkpt lat="45.74715" lon="6.01243">
        <ele>609</ele>
        <time>2010-05-16T10:30:44Z</time>
      </trkpt>
      <trkpt lat="45.74699" lon="6.01237">
        <ele>609</ele>
        <time>2010-05-16T10:30:54Z</time>
      </trkpt>
      <trkpt lat="45.74672" lon="6.01226">
        <ele>608</ele>
        <time>2010-05-16T10:31:04Z</time>
      </trkpt>
      <trkpt lat="45.74643" lon="6.01212">
        <ele>604</ele>
        <time>2010-05-16T10:31:14Z</time>
      </trkpt>
      <trkpt lat="45.74615" lon="6.01195">
        <ele>598</ele>
        <time>2010-05-16T10:31:24Z</time>
      </trkpt>
      <trkpt lat="45.74591" lon="6.01174">
        <ele>592</ele>
        <time>2010-05-16T10:31:34Z</time>
      </trkpt>
      <trkpt lat="45.74575" lon="6.01153">
        <ele>592</ele>
        <time>2010-05-16T10:31:44Z</time>
      </trkpt>
      <trkpt lat="45.74562" lon="6.01133">
        <ele>592</ele>
        <time>2010-05-16T10:31:54Z</time>
      </trkpt>
      <trkpt lat="45.74548" lon="6.01113">
        <ele>596</ele>
        <time>2010-05-16T10:32:04Z</time>
      </trkpt>
      <trkpt lat="45.74521" lon="6.01095">
        <ele>598</ele>
        <time>2010-05-16T10:32:14Z</time>
      </trkpt>
      <trkpt lat="45.74494" lon="6.01084">
        <ele>595</ele>
        <time>2010-05-16T10:32:24Z</time>
      </trkpt>
      <trkpt lat="45.74467" lon="6.01075">
        <ele>594</ele>
        <time>2010-05-16T10:32:34Z</time>
      </trkpt>
      <trkpt lat="45.7444" lon="6.01065">
        <ele>592</ele>
        <time>2010-05-16T10:32:44Z</time>
      </trkpt>
      <trkpt lat="45.74417" lon="6.01055">
        <ele>592</ele>
        <time>2010-05-16T10:32:54Z</time>
      </trkpt>
      <trkpt lat="45.74395" lon="6.01048">
        <ele>592</ele>
        <time>2010-05-16T10:33:04Z</time>
      </trkpt>
      <trkpt lat="45.74372" lon="6.01037">
        <ele>592</ele>
        <time>2010-05-16T10:33:14Z</time>
      </trkpt>
      <trkpt lat="45.74351" lon="6.01019">
        <ele>592</ele>
        <time>2010-05-16T10:33:24Z</time>
      </trkpt>
      <trkpt lat="45.74318" lon="6.00992">
        <ele>592</ele>
        <time>2010-05-16T10:33:34Z</time>
      </trkpt>
      <trkpt lat="45.74271" lon="6.00938">
        <ele>591</ele>
        <time>2010-05-16T10:33:44Z</time>
      </trkpt>
      <trkpt lat="45.74233" lon="6.00879">
        <ele>591</ele>
        <time>2010-05-16T10:33:54Z</time>
      </trkpt>
      <trkpt lat="45.74194" lon="6.00836">
        <ele>591</ele>
        <time>2010-05-16T10:34:04Z</time>
      </trkpt>
      <trkpt lat="45.74154" lon="6.00804">
        <ele>591</ele>
        <time>2010-05-16T10:34:14Z</time>
      </trkpt>
      <trkpt lat="45.74117" lon="6.00773">
        <ele>588</ele>
        <time>2010-05-16T10:34:24Z</time>
      </trkpt>
      <trkpt lat="45.74082" lon="6.00747">
        <ele>583</ele>
        <time>2010-05-16T10:34:34Z</time>
      </trkpt>
      <trkpt lat="45.74052" lon="6.00724">
        <ele>583</ele>
        <time>2010-05-16T10:34:44Z</time>
      </trkpt>
      <trkpt lat="45.74029" lon="6.00703">
        <ele>583</ele>
        <time>2010-05-16T10:34:54Z</time>
      </trkpt>
      <trkpt lat="45.73994" lon="6.00663">
        <ele>585</ele>
        <time>2010-05-16T10:35:04Z</time>
      </trkpt>
      <trkpt lat="45.73952" lon="6.00626">
        <ele>587</ele>
        <time>2010-05-16T10:35:14Z</time>
      </trkpt>
      <trkpt lat="45.73917" lon="6.00605">
        <ele>587</ele>
        <time>2010-05-16T10:35:24Z</time>
      </trkpt>
      <trkpt lat="45.73883" lon="6.00591">
        <ele>587</ele>
        <time>2010-05-16T10:35:34Z</time>
      </trkpt>
      <trkpt lat="45.73849" lon="6.00578">
        <ele>587</ele>
        <time>2010-05-16T10:35:44Z</time>
      </trkpt>
      <trkpt lat="45.73818" lon="6.00565">
        <ele>587</ele>
        <time>2010-05-16T10:35:54Z</time>
      </trkpt>
      <trkpt lat="45.73786" lon="6.00552">
        <ele>587</ele>
        <time>2010-05-16T10:36:04Z</time>
      </trkpt>
      <trkpt lat="45.73756" lon="6.00529">
        <ele>587</ele>
        <time>2010-05-16T10:36:14Z</time>
      </trkpt>
      <trkpt lat="45.7374" lon="6.00499">
        <ele>587</ele>
        <time>2010-05-16T10:36:24Z</time>
      </trkpt>
      <trkpt lat="45.73723" lon="6.00468">
        <ele>587</ele>
        <time>2010-05-16T10:36:34Z</time>
      </trkpt>
      <trkpt lat="45.73702" lon="6.00433">
        <ele>587</ele>
        <time>2010-05-16T10:36:44Z</time>
      </trkpt>
      <trkpt lat="45.73682" lon="6.00401">
        <ele>587</ele>
        <time>2010-05-16T10:36:54Z</time>
      </trkpt>
      <trkpt lat="45.73659" lon="6.00371">
        <ele>587</ele>
        <time>2010-05-16T10:37:04Z</time>
      </trkpt>
      <trkpt lat="45.73639" lon="6.00351">
        <ele>587</ele>
        <time>2010-05-16T10:37:14Z</time>
      </trkpt>
      <trkpt lat="45.73619" lon="6.00341">
        <ele>591</ele>
        <time>2010-05-16T10:37:24Z</time>
      </trkpt>
      <trkpt lat="45.73592" lon="6.00327">
        <ele>592</ele>
        <time>2010-05-16T10:37:34Z</time>
      </trkpt>
      <trkpt lat="45.73566" lon="6.00313">
        <ele>592</ele>
        <time>2010-05-16T10:37:44Z</time>
      </trkpt>
      <trkpt lat="45.73542" lon="6.00298">
        <ele>592</ele>
        <time>2010-05-16T10:37:54Z</time>
      </trkpt>
      <trkpt lat="45.73521" lon="6.00283">
        <ele>592</ele>
        <time>2010-05-16T10:38:04Z</time>
      </trkpt>
      <trkpt lat="45.73495" lon="6.0028">
        <ele>592</ele>
        <time>2010-05-16T10:38:14Z</time>
      </trkpt>
      <trkpt lat="45.73479" lon="6.00265">
        <ele>592</ele>
        <time>2010-05-16T10:38:24Z</time>
      </trkpt>
      <trkpt lat="45.73485" lon="6.00221">
        <ele>591</ele>
        <time>2010-05-16T10:38:34Z</time>
      </trkpt>
      <trkpt lat="45.73484" lon="6.00179">
        <ele>591</ele>
        <time>2010-05-16T10:38:44Z</time>
      </trkpt>
      <trkpt lat="45.73479" lon="6.00154">
        <ele>584</ele>
        <time>2010-05-16T10:38:55Z</time>
      </trkpt>
      <trkpt lat="45.73468" lon="6.00145">
        <ele>583</ele>
        <time>2010-05-16T10:39:08Z</time>
      </trkpt>
      <trkpt lat="45.73465" lon="6.00165">
        <ele>579</ele>
        <time>2010-05-16T10:39:30Z</time>
      </trkpt>
      <trkpt lat="45.73464" lon="6.00132">
        <ele>567</ele>
        <time>2010-05-16T10:39:45Z</time>
      </trkpt>
      <trkpt lat="45.73466" lon="6.00132">
        <ele>584</ele>
        <time>2010-05-16T10:39:57Z</time>
      </trkpt>
      <trkpt lat="45.73471" lon="6.0014">
        <ele>584</ele>
        <time>2010-05-16T10:40:09Z</time>
      </trkpt>
      <trkpt lat="45.73471" lon="6.0014">
        <ele>584</ele>
        <time>2010-05-16T10:40:10Z</time>
      </trkpt>
    </trkseg>
  </trk>
</gpx>